Time;durP1;ratioP1;P1;durP2;ratioP2;P2;SDS_P1;SDS_P2;PMS_P1;PMS_P2;Temp;Humidity;BMP_temperature;BMP_pressure;BME280_temperature;BME280_humidity;BME280_pressure;Samples;Min_cycle;Max_cycle;Signal;HPM_P1;HPM_P2
2022/08/19 00:01:38;;;;;;;11.77;7.97;;;;;;;;;;5056324;28;20031;-76
2022/08/19 00:04:07;;;;;;;11.00;7.72;;;;;;;;;;5073963;28;20059;-75
2022/08/19 00:06:35;;;;;;;9.50;7.32;;;;;;;;;;5074152;28;20029;-75
2022/08/19 00:09:01;;;;;;;10.25;7.70;;;;;;;;;;5056186;28;20375;-75
2022/08/19 00:11:27;;;;;;;10.32;8.18;;;;;;;;;;5074104;28;20023;-75
2022/08/19 00:13:53;;;;;;;13.95;8.23;;;;;;;;;;5073862;28;20028;-76
2022/08/19 00:16:20;;;;;;;9.95;8.27;;;;;;;;;;5074384;28;20123;-75
2022/08/19 00:18:46;;;;;;;10.15;8.52;;;;;;;;;;5056239;28;20396;-76
2022/08/19 00:21:11;;;;;;;14.50;8.75;;;;;;;;;;5073921;28;20107;-74
2022/08/19 00:23:36;;;;;;;10.83;8.37;;;;;;;;;;5055985;28;20113;-74
2022/08/19 00:26:03;;;;;;;10.03;9.00;;;;;;;;;;5074017;28;20281;-75
2022/08/19 00:28:30;;;;;;;11.38;8.50;;;;;;;;;;5073953;28;20285;-74
2022/08/19 00:30:55;;;;;;;12.13;9.30;;;;;;;;;;5073263;28;20020;-75
2022/08/19 00:33:21;;;;;;;12.75;9.52;;;;;;;;;;5073621;28;20032;-74
2022/08/19 00:35:46;;;;;;;12.85;9.20;;;;;;;;;;5073658;28;20096;-75
2022/08/19 00:38:11;;;;;;;11.80;8.53;;;;;;;;;;5073600;28;20107;-75
2022/08/19 00:40:36;;;;;;;13.30;8.98;;;;;;;;;;5073597;28;20272;-75
2022/08/19 00:43:08;;;;;;;12.70;9.10;;;;;;;;;;5073442;28;20477;-74
2022/08/19 00:45:35;;;;;;;12.30;9.52;;;;;;;;;;5073567;28;20289;-76
2022/08/19 00:48:03;;;;;;;11.18;9.05;;;;;;;;;;5055517;28;20028;-76
2022/08/19 00:50:29;;;;;;;10.57;9.45;;;;;;;;;;5055498;28;20020;-75
2022/08/19 00:52:55;;;;;;;10.77;9.05;;;;;;;;;;5073528;28;20477;-77
2022/08/19 00:55:24;;;;;;;14.15;9.43;;;;;;;;;;5055314;28;20107;-74
2022/08/19 00:57:59;;;;;;;14.80;9.27;;;;;;;;;;5073183;28;20060;-74
2022/08/19 01:00:28;;;;;;;12.07;8.82;;;;;;;;;;5073442;28;20024;-75
2022/08/19 01:02:54;;;;;;;11.10;8.75;;;;;;;;;;5073708;28;20032;-74
2022/08/19 01:05:24;;;;;;;10.90;9.55;;;;;;;;;;5073007;28;20478;-74
2022/08/19 01:07:50;;;;;;;13.35;9.23;;;;;;;;;;5073404;28;20032;-76
2022/08/19 01:10:19;;;;;;;11.85;9.82;;;;;;;;;;5072871;28;20090;-75
2022/08/19 01:12:46;;;;;;;13.27;10.02;;;;;;;;;;5073308;28;20496;-75
2022/08/19 01:15:15;;;;;;;12.65;9.55;;;;;;;;;;5072909;28;20050;-75
2022/08/19 01:17:41;;;;;;;12.38;9.13;;;;;;;;;;5072978;28;20032;-75
2022/08/19 01:20:11;;;;;;;13.77;9.35;;;;;;;;;;5072736;28;20078;-74
2022/08/19 01:22:47;;;;;;;14.07;9.48;;;;;;;;;;5073232;28;20025;-74
2022/08/19 01:25:15;;;;;;;12.98;10.02;;;;;;;;;;5072738;28;20536;-74
2022/08/19 01:27:47;;;;;;;13.10;9.98;;;;;;;;;;5073155;28;20029;-75
2022/08/19 01:30:16;;;;;;;13.00;10.07;;;;;;;;;;5073193;28;20566;-75
2022/08/19 01:32:41;;;;;;;14.48;10.13;;;;;;;;;;5073137;28;20024;-75
2022/08/19 01:35:08;;;;;;;13.32;9.85;;;;;;;;;;5079276;28;20017;-76
2022/08/19 01:37:47;;;;;;;11.55;9.50;;;;;;;;;;5079521;28;20028;-75
2022/08/19 01:40:14;;;;;;;15.93;10.48;;;;;;;;;;5079696;28;20024;-75
2022/08/19 01:42:41;;;;;;;12.98;9.80;;;;;;;;;;5079616;28;20035;-76
2022/08/19 01:45:07;;;;;;;11.95;9.85;;;;;;;;;;5079733;28;20021;-75
2022/08/19 01:47:35;;;;;;;14.43;10.13;;;;;;;;;;5079413;28;20021;-75
2022/08/19 01:50:00;;;;;;;15.48;9.93;;;;;;;;;;5079552;28;20024;-74
2022/08/19 01:52:27;;;;;;;15.15;10.05;;;;;;;;;;5061918;28;20437;-75
2022/08/19 01:54:52;;;;;;;16.55;10.88;;;;;;;;;;5061480;28;20425;-74
2022/08/19 01:57:17;;;;;;;12.07;9.80;;;;;;;;;;5079278;28;20040;-76
2022/08/19 01:59:44;;;;;;;12.90;9.97;;;;;;;;;;5061488;28;20107;-75
2022/08/19 02:02:10;;;;;;;11.50;9.68;;;;;;;;;;5079293;28;20289;-76
2022/08/19 02:04:35;;;;;;;12.95;9.68;;;;;;;;;;5079181;28;20063;-76
2022/08/19 02:07:01;;;;;;;16.13;10.00;;;;;;;;;;5079253;28;20389;-76
2022/08/19 02:09:27;;;;;;;13.43;10.50;;;;;;;;;;5079225;28;20428;-75
2022/08/19 02:11:53;;;;;;;13.90;10.65;;;;;;;;;;5061254;28;20040;-75
2022/08/19 02:14:18;;;;;;;12.63;10.57;;;;;;;;;;5079291;28;20029;-75
2022/08/19 02:16:43;;;;;;;14.18;10.73;;;;;;;;;;5079126;28;20132;-75
2022/08/19 02:19:10;;;;;;;13.90;10.30;;;;;;;;;;5079068;28;20090;-75
2022/08/19 02:21:35;;;;;;;15.20;10.48;;;;;;;;;;5079170;28;20344;-75
2022/08/19 02:24:01;;;;;;;17.27;10.73;;;;;;;;;;5078997;28;20102;-75
2022/08/19 02:26:26;;;;;;;15.93;10.18;;;;;;;;;;5079247;28;20025;-74
2022/08/19 02:28:52;;;;;;;14.25;10.43;;;;;;;;;;5079180;28;20027;-75
2022/08/19 02:31:20;;;;;;;15.15;11.00;;;;;;;;;;5061123;28;20029;-76
2022/08/19 02:33:46;;;;;;;16.00;9.82;;;;;;;;;;5078829;28;20028;-76
2022/08/19 02:36:13;;;;;;;16.23;10.70;;;;;;;;;;5078979;28;20024;-76
2022/08/19 02:38:39;;;;;;;13.32;10.40;;;;;;;;;;5079239;28;20119;-74
2022/08/19 02:41:10;;;;;;;11.82;10.30;;;;;;;;;;5078925;28;20055;-76
2022/08/19 02:43:36;;;;;;;13.85;10.45;;;;;;;;;;5078797;28;20473;-75
2022/08/19 02:46:11;;;;;;;12.57;10.50;;;;;;;;;;5076212;28;20095;-75
2022/08/19 02:48:36;;;;;;;13.98;10.80;;;;;;;;;;5075816;28;20099;-74
2022/08/19 02:51:01;;;;;;;13.70;10.03;;;;;;;;;;5075688;28;20108;-75
2022/08/19 02:53:27;;;;;;;14.67;9.83;;;;;;;;;;5075518;28;20260;-76
2022/08/19 02:55:53;;;;;;;14.30;10.07;;;;;;;;;;5075991;28;20254;-75
2022/08/19 02:58:19;;;;;;;12.95;10.50;;;;;;;;;;5075724;28;20036;-75
2022/08/19 03:00:48;;;;;;;17.35;10.80;;;;;;;;;;5075670;28;20027;-75
2022/08/19 03:03:13;;;;;;;12.63;10.45;;;;;;;;;;5075322;28;20028;-75
2022/08/19 03:05:39;;;;;;;14.50;10.52;;;;;;;;;;5075297;28;20393;-75
2022/08/19 03:08:05;;;;;;;16.40;10.15;;;;;;;;;;5057461;28;20020;-74
2022/08/19 03:10:31;;;;;;;12.70;9.68;;;;;;;;;;5057338;28;20028;-76
2022/08/19 03:12:56;;;;;;;16.08;10.43;;;;;;;;;;5075619;28;20028;-75
2022/08/19 03:15:21;;;;;;;14.07;10.80;;;;;;;;;;5075224;28;20052;-75
2022/08/19 03:17:47;;;;;;;13.63;10.93;;;;;;;;;;5075196;28;20315;-76
2022/08/19 03:20:12;;;;;;;12.67;10.73;;;;;;;;;;5075333;28;20024;-76
2022/08/19 03:22:37;;;;;;;15.07;10.68;;;;;;;;;;5075316;28;20275;-75
2022/08/19 03:25:03;;;;;;;19.80;10.73;;;;;;;;;;5074904;28;20111;-73
2022/08/19 03:27:29;;;;;;;16.55;11.30;;;;;;;;;;5075127;28;20307;-73
2022/08/19 03:29:54;;;;;;;14.15;11.15;;;;;;;;;;5074889;28;20107;-76
2022/08/19 03:32:21;;;;;;;14.90;11.23;;;;;;;;;;5075179;28;20056;-75
2022/08/19 03:34:47;;;;;;;12.98;11.38;;;;;;;;;;5074764;28;20025;-75
2022/08/19 03:37:12;;;;;;;15.30;12.30;;;;;;;;;;5074844;28;20035;-75
2022/08/19 03:39:39;;;;;;;15.93;11.03;;;;;;;;;;5074869;28;20505;-74
2022/08/19 03:42:05;;;;;;;12.95;11.13;;;;;;;;;;5056743;28;20265;-75
2022/08/19 03:44:32;;;;;;;12.65;10.93;;;;;;;;;;5074431;28;20028;-75
2022/08/19 03:46:59;;;;;;;15.98;11.77;;;;;;;;;;5074629;28;20342;-74
2022/08/19 03:49:30;;;;;;;15.02;11.60;;;;;;;;;;5074502;28;20122;-75
2022/08/19 03:51:57;;;;;;;13.65;11.07;;;;;;;;;;5074870;28;20128;-75
2022/08/19 03:54:25;;;;;;;13.32;10.80;;;;;;;;;;5074311;28;20024;-74
2022/08/19 03:56:53;;;;;;;14.20;11.27;;;;;;;;;;5073936;28;20086;-74
2022/08/19 03:59:25;;;;;;;17.35;10.57;;;;;;;;;;5074896;28;20036;-75
2022/08/19 04:02:00;;;;;;;16.77;11.40;;;;;;;;;;5074266;28;20107;-75
2022/08/19 04:04:26;;;;;;;14.20;11.88;;;;;;;;;;5074447;28;20128;-75
2022/08/19 04:06:52;;;;;;;16.38;12.30;;;;;;;;;;5074401;28;20028;-74
2022/08/19 04:09:18;;;;;;;14.70;11.50;;;;;;;;;;5074785;28;20028;-75
2022/08/19 04:11:46;;;;;;;15.27;11.75;;;;;;;;;;5074462;28;20028;-75
2022/08/19 04:14:17;;;;;;;14.40;11.77;;;;;;;;;;5074179;28;20040;-76
2022/08/19 04:16:44;;;;;;;15.57;12.27;;;;;;;;;;5074240;28;20086;-75
2022/08/19 04:19:09;;;;;;;15.65;12.45;;;;;;;;;;5074445;28;20132;-74
2022/08/19 04:21:35;;;;;;;17.67;12.82;;;;;;;;;;5074155;28;20497;-75
2022/08/19 04:24:01;;;;;;;16.02;12.57;;;;;;;;;;5074012;28;20385;-76
2022/08/19 04:26:31;;;;;;;14.40;12.90;;;;;;;;;;5073993;28;20024;-74
2022/08/19 04:28:58;;;;;;;15.73;12.90;;;;;;;;;;5074323;28;20107;-75
2022/08/19 04:31:26;;;;;;;17.83;12.35;;;;;;;;;;5073863;28;20032;-75
2022/08/19 04:34:02;;;;;;;14.63;12.43;;;;;;;;;;5073804;28;20036;-74
2022/08/19 04:36:30;;;;;;;17.80;12.02;;;;;;;;;;5073942;28;20016;-74
2022/08/19 04:38:58;;;;;;;14.43;12.50;;;;;;;;;;5073613;28;20363;-74
2022/08/19 04:44:08;;;;;;;15.95;11.75;;;;;;;;;;5074148;28;20377;-74
2022/08/19 04:46:33;;;;;;;14.75;13.05;;;;;;;;;;5055710;28;20021;-75
2022/08/19 04:49:00;;;;;;;15.73;12.13;;;;;;;;;;5073441;28;20033;-76
2022/08/19 04:51:25;;;;;;;18.80;13.25;;;;;;;;;;5073328;28;20028;-74
2022/08/19 04:53:52;;;;;;;17.10;12.63;;;;;;;;;;5073262;28;20051;-75
2022/08/19 04:56:20;;;;;;;16.92;12.93;;;;;;;;;;5073319;28;20250;-75
2022/08/19 04:58:46;;;;;;;17.75;13.73;;;;;;;;;;5073312;28;20025;-74
2022/08/19 05:01:13;;;;;;;18.95;12.95;;;;;;;;;;5073202;28;20107;-75
2022/08/19 05:03:39;;;;;;;16.65;12.20;;;;;;;;;;5073460;28;20050;-76
2022/08/19 05:06:10;;;;;;;16.70;12.38;;;;;;;;;;5073349;28;20111;-76
2022/08/19 05:08:36;;;;;;;17.30;13.10;;;;;;;;;;5054276;28;20052;-75
2022/08/19 05:11:13;;;;;;;18.45;13.18;;;;;;;;;;5073031;28;20028;-75
2022/08/19 05:13:38;;;;;;;15.07;12.15;;;;;;;;;;5055169;28;20192;-75
2022/08/19 05:16:04;;;;;;;15.52;12.25;;;;;;;;;;5073131;28;20047;-74
2022/08/19 05:24:01;;;;;;;13.23;11.82;;;;;;;;;;5073355;28;20397;-75
2022/08/19 05:26:28;;;;;;;15.73;12.07;;;;;;;;;;5073248;28;20107;-76
2022/08/19 05:28:54;;;;;;;16.30;11.95;;;;;;;;;;5072874;28;20032;-75
2022/08/19 05:31:19;;;;;;;18.20;11.82;;;;;;;;;;5072823;28;20040;-76
2022/08/19 05:33:45;;;;;;;17.58;12.32;;;;;;;;;;5073049;28;20025;-75
2022/08/19 05:36:10;;;;;;;14.77;11.45;;;;;;;;;;5072919;28;20052;-75
2022/08/19 05:38:36;;;;;;;18.75;13.15;;;;;;;;;;5072609;28;20027;-74
2022/08/19 05:41:08;;;;;;;19.00;13.30;;;;;;;;;;5073077;28;20024;-75
2022/08/19 05:43:33;;;;;;;17.23;12.57;;;;;;;;;;5054849;28;20024;-76
2022/08/19 05:45:59;;;;;;;17.67;12.70;;;;;;;;;;5072791;28;20032;-75
2022/08/19 05:48:24;;;;;;;17.67;13.38;;;;;;;;;;5072896;28;20258;-75
2022/08/19 05:50:50;;;;;;;20.55;12.90;;;;;;;;;;5054874;28;20025;-72
2022/08/19 05:53:16;;;;;;;16.90;12.45;;;;;;;;;;5072783;28;20478;-76
2022/08/19 05:55:41;;;;;;;16.80;12.93;;;;;;;;;;5055177;28;20029;-76
2022/08/19 05:58:09;;;;;;;15.90;12.37;;;;;;;;;;5073007;28;20086;-75
2022/08/19 06:00:37;;;;;;;18.38;12.73;;;;;;;;;;5073267;28;20315;-75
2022/08/19 06:03:03;;;;;;;16.80;12.50;;;;;;;;;;5059437;28;20039;-73
2022/08/19 06:05:32;;;;;;;23.55;12.48;;;;;;;;;;5080657;28;20445;-74
2022/08/19 06:07:58;;;;;;;15.90;11.88;;;;;;;;;;5079631;28;20025;-74
2022/08/19 06:10:24;;;;;;;17.85;12.55;;;;;;;;;;5078360;28;20155;-74
2022/08/19 06:12:49;;;;;;;15.40;12.70;;;;;;;;;;5081834;28;20059;-77
2022/08/19 06:15:15;;;;;;;14.73;12.57;;;;;;;;;;5079265;28;20409;-74
2022/08/19 06:17:44;;;;;;;15.55;11.25;;;;;;;;;;5079882;28;20293;-75
2022/08/19 06:20:13;;;;;;;16.77;11.75;;;;;;;;;;5080240;28;20036;-76
2022/08/19 06:22:40;;;;;;;13.32;10.18;;;;;;;;;;5085788;28;20025;-75
2022/08/19 06:25:06;;;;;;;17.35;10.45;;;;;;;;;;5082644;28;20477;-74
2022/08/19 06:27:32;;;;;;;13.23;9.88;;;;;;;;;;5081855;28;20024;-74
2022/08/19 06:29:58;;;;;;;15.80;8.68;;;;;;;;;;5084493;28;20027;-74
2022/08/19 06:32:23;;;;;;;12.30;8.80;;;;;;;;;;5082557;28;20024;-74
2022/08/19 06:34:48;;;;;;;11.20;8.60;;;;;;;;;;5060819;28;20104;-75
2022/08/19 06:37:14;;;;;;;12.05;8.15;;;;;;;;;;5058291;28;20311;-74
2022/08/19 06:39:43;;;;;;;9.75;8.07;;;;;;;;;;5076167;28;20028;-74
2022/08/19 06:42:11;;;;;;;14.77;8.35;;;;;;;;;;5057835;28;20031;-75
2022/08/19 06:44:40;;;;;;;15.05;8.93;;;;;;;;;;5075488;28;20021;-75
2022/08/19 06:47:07;;;;;;;11.95;8.13;;;;;;;;;;5075498;28;20028;-74
2022/08/19 06:49:33;;;;;;;12.30;8.43;;;;;;;;;;5075891;28;20436;-75
2022/08/19 06:52:00;;;;;;;12.35;8.20;;;;;;;;;;5075810;28;20024;-74
2022/08/19 06:54:26;;;;;;;12.50;8.90;;;;;;;;;;5075307;28;20028;-75
2022/08/19 06:56:51;;;;;;;10.98;7.88;;;;;;;;;;5057550;28;20024;-75
2022/08/19 06:59:22;;;;;;;13.40;8.50;;;;;;;;;;5076051;28;20040;-74
2022/08/19 07:01:52;;;;;;;11.15;8.70;;;;;;;;;;5075394;28;20492;-76
2022/08/19 07:04:23;;;;;;;12.07;8.77;;;;;;;;;;5075643;28;20055;-73
2022/08/19 07:06:50;;;;;;;11.23;8.93;;;;;;;;;;5075661;28;20036;-75
2022/08/19 07:09:17;;;;;;;11.15;9.23;;;;;;;;;;5075371;28;20632;-74
2022/08/19 07:11:47;;;;;;;13.40;8.43;;;;;;;;;;5075247;28;20051;-76
2022/08/19 07:14:14;;;;;;;9.80;8.77;;;;;;;;;;5075019;28;20025;-75
2022/08/19 07:16:39;;;;;;;10.20;8.93;;;;;;;;;;5075045;28;20099;-75
2022/08/19 07:19:04;;;;;;;12.27;8.82;;;;;;;;;;5075463;28;20032;-75
2022/08/19 07:21:30;;;;;;;13.40;9.70;;;;;;;;;;5075180;28;20028;-75
2022/08/19 07:23:56;;;;;;;12.60;9.17;;;;;;;;;;5074949;28;20265;-75
2022/08/19 07:26:27;;;;;;;13.85;9.27;;;;;;;;;;5074877;28;20273;-75
2022/08/19 07:28:54;;;;;;;12.27;9.68;;;;;;;;;;5074912;28;20432;-76
2022/08/19 07:31:22;;;;;;;13.07;9.75;;;;;;;;;;5074239;28;20389;-75
2022/08/19 07:33:50;;;;;;;12.00;9.40;;;;;;;;;;5074880;28;20032;-76
2022/08/19 07:36:19;;;;;;;14.25;10.68;;;;;;;;;;5075042;28;20066;-75
2022/08/19 07:38:47;;;;;;;15.43;10.18;;;;;;;;;;5074944;28;20031;-76
2022/08/19 07:41:17;;;;;;;14.60;10.55;;;;;;;;;;5074634;28;20474;-77
2022/08/19 07:43:43;;;;;;;17.05;10.52;;;;;;;;;;5074694;28;20037;-77
2022/08/19 07:46:09;;;;;;;13.13;11.38;;;;;;;;;;5056265;28;20367;-75
2022/08/19 07:48:34;;;;;;;13.63;10.65;;;;;;;;;;5074853;28;20029;-75
2022/08/19 07:51:03;;;;;;;12.80;10.70;;;;;;;;;;5074488;28;20027;-76
2022/08/19 07:53:30;;;;;;;15.23;11.70;;;;;;;;;;5074247;28;20028;-75
2022/08/19 07:55:59;;;;;;;16.85;11.90;;;;;;;;;;5074652;28;20050;-73
2022/08/19 07:58:24;;;;;;;17.10;12.20;;;;;;;;;;5074252;28;20521;-75
2022/08/19 08:00:50;;;;;;;15.20;11.70;;;;;;;;;;5074323;28;20028;-75
2022/08/19 08:03:20;;;;;;;15.57;12.20;;;;;;;;;;5074110;28;20035;-73
2022/08/19 08:11:19;;;;;;;16.17;12.02;;;;;;;;;;5074069;28;20035;-74
2022/08/19 08:13:45;;;;;;;16.23;12.05;;;;;;;;;;5074008;28;20023;-74
2022/08/19 08:16:10;;;;;;;18.55;12.70;;;;;;;;;;5073725;28;20095;-74
2022/08/19 08:18:41;;;;;;;13.60;11.68;;;;;;;;;;5055728;28;20405;-74
2022/08/19 08:21:07;;;;;;;16.75;12.20;;;;;;;;;;5055976;28;20077;-75
2022/08/19 08:23:32;;;;;;;15.90;12.20;;;;;;;;;;5073806;28;20036;-76
2022/08/19 08:25:58;;;;;;;15.90;11.90;;;;;;;;;;5055675;28;20016;-74
2022/08/19 08:28:25;;;;;;;14.63;10.40;;;;;;;;;;5073749;28;20052;-75
2022/08/19 08:30:50;;;;;;;15.60;10.50;;;;;;;;;;5073694;28;20055;-74
2022/08/19 08:33:21;;;;;;;15.80;11.45;;;;;;;;;;5073510;28;20426;-74
2022/08/19 08:35:47;;;;;;;17.02;11.98;;;;;;;;;;5073270;28;20162;-74
2022/08/19 08:38:13;;;;;;;12.90;10.90;;;;;;;;;;5073342;28;20492;-74
2022/08/19 08:40:51;;;;;;;14.10;11.15;;;;;;;;;;5073371;28;20043;-75
2022/08/19 08:43:22;;;;;;;15.55;11.40;;;;;;;;;;5073755;28;20126;-74
2022/08/19 08:46:07;;;;;;;13.55;10.63;;;;;;;;;;5073112;28;20024;-74
2022/08/19 08:48:42;;;;;;;13.88;10.38;;;;;;;;;;5073487;28;20123;-74
2022/08/19 08:51:12;;;;;;;13.02;9.55;;;;;;;;;;5073238;28;20074;-73
2022/08/19 08:53:38;;;;;;;15.73;9.48;;;;;;;;;;5073458;28;20473;-74
2022/08/19 08:56:06;;;;;;;9.27;8.27;;;;;;;;;;5073019;28;20108;-75
2022/08/19 08:58:45;;;;;;;10.07;8.25;;;;;;;;;;5072922;28;20094;-74
2022/08/19 09:01:11;;;;;;;9.50;8.40;;;;;;;;;;5073154;28;20379;-73
2022/08/19 09:03:39;;;;;;;10.75;7.95;;;;;;;;;;5072956;28;20020;-74
2022/08/19 09:06:18;;;;;;;9.30;7.72;;;;;;;;;;5073131;28;20119;-74
2022/08/19 09:08:50;;;;;;;12.90;7.78;;;;;;;;;;5073029;28;20021;-74
2022/08/19 09:11:24;;;;;;;10.88;8.07;;;;;;;;;;5073058;28;20433;-73
2022/08/19 09:13:59;;;;;;;8.85;7.85;;;;;;;;;;5072858;28;20024;-74
2022/08/19 09:16:27;;;;;;;11.32;7.70;;;;;;;;;;5072977;28;20066;-75
2022/08/19 09:18:57;;;;;;;9.70;8.70;;;;;;;;;;5073340;28;20024;-74
2022/08/19 09:21:25;;;;;;;10.10;7.70;;;;;;;;;;5072950;28;20025;-73
2022/08/19 09:23:50;;;;;;;10.18;8.23;;;;;;;;;;5073089;28;20025;-74
2022/08/19 09:26:20;;;;;;;11.43;8.70;;;;;;;;;;5072593;28;20390;-74
2022/08/19 09:28:48;;;;;;;11.25;8.63;;;;;;;;;;5072784;28;20058;-75
2022/08/19 09:31:16;;;;;;;12.32;8.85;;;;;;;;;;5072591;28;20086;-75
2022/08/19 09:33:43;;;;;;;10.40;8.93;;;;;;;;;;5072847;28;20396;-74
2022/08/19 09:36:11;;;;;;;11.00;9.00;;;;;;;;;;5072523;28;20099;-76
2022/08/19 09:38:41;;;;;;;11.63;8.75;;;;;;;;;;5072636;28;20025;-74
2022/08/19 09:41:11;;;;;;;11.13;8.65;;;;;;;;;;5072783;28;20031;-74
2022/08/19 09:43:36;;;;;;;11.20;9.02;;;;;;;;;;5072388;28;20505;-75
2022/08/19 09:46:08;;;;;;;10.27;8.68;;;;;;;;;;5072476;28;20025;-75
2022/08/19 09:48:35;;;;;;;12.65;9.63;;;;;;;;;;5072551;28;20146;-73
2022/08/19 09:51:09;;;;;;;9.93;8.88;;;;;;;;;;5072681;28;20111;-74
2022/08/19 09:53:36;;;;;;;10.38;8.73;;;;;;;;;;5072571;28;20105;-74
2022/08/19 09:56:02;;;;;;;11.68;9.05;;;;;;;;;;5075561;28;20111;-74
2022/08/19 09:58:29;;;;;;;11.52;8.65;;;;;;;;;;5076431;28;20036;-74
2022/08/19 10:00:55;;;;;;;10.73;8.95;;;;;;;;;;5076507;28;20458;-74
2022/08/19 10:03:20;;;;;;;10.73;8.57;;;;;;;;;;5076352;28;20032;-73
2022/08/19 10:05:48;;;;;;;12.10;9.15;;;;;;;;;;5076425;28;20427;-75
2022/08/19 10:08:16;;;;;;;11.07;8.57;;;;;;;;;;5076366;28;20086;-75
2022/08/19 10:10:45;;;;;;;11.57;8.88;;;;;;;;;;5076460;28;20051;-74
2022/08/19 10:13:11;;;;;;;12.23;9.05;;;;;;;;;;5076588;28;20020;-75
2022/08/19 10:15:38;;;;;;;11.30;8.48;;;;;;;;;;5076486;28;20070;-74
2022/08/19 10:18:04;;;;;;;10.38;8.32;;;;;;;;;;5076485;28;20017;-74
2022/08/19 10:20:29;;;;;;;9.05;7.53;;;;;;;;;;5076065;28;20032;-76
2022/08/19 10:22:55;;;;;;;10.05;7.30;;;;;;;;;;5076233;28;20028;-75
2022/08/19 10:25:20;;;;;;;9.77;7.25;;;;;;;;;;5076098;28;20477;-74
2022/08/19 10:27:45;;;;;;;8.43;6.37;;;;;;;;;;5076139;28;20031;-75
2022/08/19 10:30:11;;;;;;;7.67;6.67;;;;;;;;;;5075927;28;20028;-75
2022/08/19 10:32:37;;;;;;;9.77;7.03;;;;;;;;;;5075657;28;20261;-75
2022/08/19 10:35:07;;;;;;;9.57;6.88;;;;;;;;;;5075664;28;20016;-74
2022/08/19 10:37:33;;;;;;;9.32;6.75;;;;;;;;;;5076018;28;20107;-75
2022/08/19 10:39:58;;;;;;;8.10;6.93;;;;;;;;;;5076167;28;20048;-75
2022/08/19 10:42:23;;;;;;;9.77;6.80;;;;;;;;;;5075653;28;20086;-74
2022/08/19 10:44:49;;;;;;;8.55;6.22;;;;;;;;;;5075449;28;20060;-74
2022/08/19 10:47:15;;;;;;;9.30;6.45;;;;;;;;;;5075749;28;20094;-74
2022/08/19 10:52:33;;;;;;;6.53;5.63;;;;;;;;;;5075830;28;20048;-74
2022/08/19 10:52:35;;;;;;;6.88;6.18;;;;;;;;;;5075554;28;20110;-75
2022/08/19 10:57:45;;;;;;;9.75;6.00;;;;;;;;;;5075644;28;20047;-74
2022/08/19 11:00:11;;;;;;;8.63;5.97;;;;;;;;;;5075079;28;20020;-75
2022/08/19 11:02:36;;;;;;;7.35;6.03;;;;;;;;;;5075243;28;20266;-75
2022/08/19 11:05:01;;;;;;;7.33;6.07;;;;;;;;;;5075711;28;20050;-71
2022/08/19 11:07:26;;;;;;;8.65;5.97;;;;;;;;;;5073940;28;20265;-74
2022/08/19 11:09:52;;;;;;;6.77;5.70;;;;;;;;;;5075289;28;20033;-74
2022/08/19 11:12:17;;;;;;;8.33;6.03;;;;;;;;;;5075284;28;20035;-75
2022/08/19 11:14:42;;;;;;;7.00;5.47;;;;;;;;;;5075238;28;20334;-75
2022/08/19 11:17:07;;;;;;;5.90;5.17;;;;;;;;;;5075193;28;20016;-75
2022/08/19 11:19:33;;;;;;;7.50;5.45;;;;;;;;;;5075095;28;20722;-74
2022/08/19 11:22:01;;;;;;;5.97;4.80;;;;;;;;;;5075476;28;20028;-75
2022/08/19 11:24:27;;;;;;;5.68;4.85;;;;;;;;;;5074767;28;20036;-75
2022/08/19 11:26:58;;;;;;;6.75;4.70;;;;;;;;;;5075066;28;20409;-74
2022/08/19 11:29:27;;;;;;;5.97;5.30;;;;;;;;;;5057067;28;20477;-74
2022/08/19 11:31:53;;;;;;;5.65;5.00;;;;;;;;;;5075097;28;20024;-74
2022/08/19 11:34:25;;;;;;;6.80;5.13;;;;;;;;;;5074868;28;20366;-75
2022/08/19 11:36:51;;;;;;;7.57;5.35;;;;;;;;;;5075003;28;20087;-74
2022/08/19 11:39:19;;;;;;;5.90;5.30;;;;;;;;;;5075022;28;20024;-75
2022/08/19 11:41:44;;;;;;;7.93;6.03;;;;;;;;;;5074589;28;20097;-76
2022/08/19 11:44:10;;;;;;;8.80;5.63;;;;;;;;;;5074572;28;20541;-73
2022/08/19 11:46:36;;;;;;;7.35;6.03;;;;;;;;;;5074632;28;20021;-74
2022/08/19 11:49:04;;;;;;;8.55;6.88;;;;;;;;;;5057021;28;20098;-75
2022/08/19 11:51:31;;;;;;;7.95;7.13;;;;;;;;;;5074402;28;20028;-75
2022/08/19 11:53:58;;;;;;;7.70;6.90;;;;;;;;;;5074273;28;20203;-74
2022/08/19 11:56:25;;;;;;;8.48;6.53;;;;;;;;;;5074519;28;20027;-74
2022/08/19 11:58:52;;;;;;;10.23;6.82;;;;;;;;;;5074580;28;20037;-75
2022/08/19 12:01:19;;;;;;;8.80;7.20;;;;;;;;;;5074277;28;20035;-75
2022/08/19 12:03:46;;;;;;;8.98;7.10;;;;;;;;;;5074082;28;20104;-75
2022/08/19 12:06:14;;;;;;;8.10;7.22;;;;;;;;;;5074233;28;20091;-75
2022/08/19 12:08:41;;;;;;;14.48;7.20;;;;;;;;;;5074053;28;20545;-75
2022/08/19 12:11:09;;;;;;;8.25;6.72;;;;;;;;;;5074313;28;20024;-75
2022/08/19 12:13:35;;;;;;;8.63;7.70;;;;;;;;;;5074236;28;20047;-73
2022/08/19 12:16:07;;;;;;;12.00;8.15;;;;;;;;;;5074094;28;20470;-73
2022/08/19 12:18:32;;;;;;;12.23;8.10;;;;;;;;;;5073400;28;20020;-74
2022/08/19 12:20:57;;;;;;;8.27;7.37;;;;;;;;;;5073716;28;20484;-74
2022/08/19 12:23:23;;;;;;;9.87;8.47;;;;;;;;;;5073904;28;20607;-73
2022/08/19 12:25:51;;;;;;;10.73;8.70;;;;;;;;;;5073843;28;20385;-76
2022/08/19 12:28:21;;;;;;;10.70;8.93;;;;;;;;;;5073932;28;20107;-75
2022/08/19 12:30:49;;;;;;;13.20;10.40;;;;;;;;;;5073594;28;20031;-75
2022/08/19 12:33:15;;;;;;;15.35;10.55;;;;;;;;;;5073727;28;20370;-75
2022/08/19 12:35:42;;;;;;;16.23;11.27;;;;;;;;;;5073572;28;20078;-73
2022/08/19 12:38:07;;;;;;;17.65;13.23;;;;;;;;;;5073455;28;20254;-75
2022/08/19 12:40:33;;;;;;;17.45;12.98;;;;;;;;;;5073771;28;20031;-75
2022/08/19 12:42:59;;;;;;;17.20;12.40;;;;;;;;;;5073410;28;20454;-74
2022/08/19 12:45:24;;;;;;;17.65;12.88;;;;;;;;;;5073718;28;20831;-74
2022/08/19 12:47:49;;;;;;;14.10;11.55;;;;;;;;;;5073674;28;20469;-74
2022/08/19 12:50:15;;;;;;;16.53;11.73;;;;;;;;;;5073376;28;20021;-75
2022/08/19 12:52:41;;;;;;;20.42;12.88;;;;;;;;;;5073285;28;20256;-75
2022/08/19 12:55:07;;;;;;;18.02;12.48;;;;;;;;;;5073222;28;20027;-75
2022/08/19 12:57:35;;;;;;;18.08;13.60;;;;;;;;;;5073144;28;20394;-75
2022/08/19 13:00:13;;;;;;;17.88;12.48;;;;;;;;;;5073488;28;20478;-75
2022/08/19 13:02:40;;;;;;;19.50;12.85;;;;;;;;;;5073355;28;20029;-73
2022/08/19 13:05:08;;;;;;;15.68;12.30;;;;;;;;;;5072942;28;20017;-75
2022/08/19 13:07:34;;;;;;;15.00;11.57;;;;;;;;;;5073076;28;20385;-75
2022/08/19 13:10:00;;;;;;;17.42;11.55;;;;;;;;;;5073145;28;20449;-74
2022/08/19 13:12:26;;;;;;;16.40;12.05;;;;;;;;;;5073221;28;20052;-74
2022/08/19 13:14:51;;;;;;;15.93;11.43;;;;;;;;;;5073092;28;20390;-75
2022/08/19 13:17:17;;;;;;;15.90;11.15;;;;;;;;;;5073241;28;20024;-75
2022/08/19 13:19:42;;;;;;;13.33;10.53;;;;;;;;;;5073523;28;20020;-74
2022/08/19 13:22:07;;;;;;;12.73;10.60;;;;;;;;;;5073882;28;20311;-75
2022/08/19 13:24:33;;;;;;;15.82;11.60;;;;;;;;;;5072739;28;20020;-75
2022/08/19 13:26:59;;;;;;;15.35;11.95;;;;;;;;;;5072946;28;20029;-75
2022/08/19 13:34:52;;;;;;;15.05;11.27;;;;;;;;;;5072807;28;19915;-75
2022/08/19 13:37:40;;;;;;;15.73;11.50;;;;;;;;;;5072609;28;20119;-75
2022/08/19 13:40:03;;;;;;;17.88;12.38;;;;;;;;;;5072661;28;20099;-75
2022/08/19 13:42:29;;;;;;;16.63;12.55;;;;;;;;;;5072883;28;20060;-75
2022/08/19 13:44:54;;;;;;;20.10;13.50;;;;;;;;;;5072433;28;20174;-75
2022/08/19 13:47:20;;;;;;;18.03;12.90;;;;;;;;;;5072680;28;20474;-75
2022/08/19 13:49:45;;;;;;;18.25;13.02;;;;;;;;;;5072620;28;20787;-76
2022/08/19 13:52:11;;;;;;;16.23;13.52;;;;;;;;;;5072642;28;20028;-75
2022/08/19 13:54:36;;;;;;;15.80;12.37;;;;;;;;;;5072607;28;20032;-75
2022/08/19 13:57:01;;;;;;;16.27;12.83;;;;;;;;;;5054563;28;20269;-75
2022/08/19 13:59:26;;;;;;;16.90;12.48;;;;;;;;;;5072440;28;20257;-76
2022/08/19 14:01:53;;;;;;;15.23;12.10;;;;;;;;;;5072565;28;20036;-75
2022/08/19 14:04:18;;;;;;;17.65;12.38;;;;;;;;;;5072703;28;20293;-75
2022/08/19 14:06:43;;;;;;;17.08;12.32;;;;;;;;;;5072861;28;20056;-76
2022/08/19 14:09:08;;;;;;;14.23;12.13;;;;;;;;;;5072397;28;20037;-75
2022/08/19 14:11:34;;;;;;;18.60;12.30;;;;;;;;;;5072356;28;20273;-75
2022/08/19 14:13:59;;;;;;;16.83;13.73;;;;;;;;;;5072329;28;20269;-74
2022/08/19 14:16:24;;;;;;;17.63;13.37;;;;;;;;;;5072349;28;20036;-75
2022/08/19 14:18:50;;;;;;;18.75;13.25;;;;;;;;;;5073004;28;20368;-75
2022/08/19 14:21:19;;;;;;;19.48;14.60;;;;;;;;;;5072524;28;20031;-74
2022/08/19 14:23:45;;;;;;;18.08;13.57;;;;;;;;;;5072005;28;20104;-75
2022/08/19 14:26:13;;;;;;;20.38;14.00;;;;;;;;;;5072436;28;20373;-74
2022/08/19 14:28:41;;;;;;;19.25;14.70;;;;;;;;;;5073064;28;20032;-75
2022/08/19 14:31:07;;;;;;;22.05;15.02;;;;;;;;;;5072289;28;20388;-74
2022/08/19 14:33:33;;;;;;;19.25;15.30;;;;;;;;;;5072268;28;20025;-75
2022/08/19 14:35:59;;;;;;;20.27;14.87;;;;;;;;;;5072122;28;20021;-76
2022/08/19 14:38:24;;;;;;;19.33;14.50;;;;;;;;;;5072209;28;20692;-74
2022/08/19 14:40:51;;;;;;;19.20;14.97;;;;;;;;;;5073388;28;20020;-75
2022/08/19 14:43:17;;;;;;;24.35;16.65;;;;;;;;;;5075471;28;20291;-73
2022/08/19 14:45:42;;;;;;;24.33;16.55;;;;;;;;;;5075774;28;20052;-75
2022/08/19 14:48:08;;;;;;;24.50;16.58;;;;;;;;;;5075801;28;20043;-73